createdAt,value
2023-12-08T00:02:46.082Z,26.90
2023-12-08T00:05:57.770Z,27.00
2023-12-08T00:09:10.708Z,27.00
2023-12-08T00:12:22.088Z,27.10
2023-12-08T00:15:32.742Z,27.10
2023-12-08T00:18:43.322Z,27.20
2023-12-08T00:21:54.957Z,27.20
2023-12-08T00:25:05.453Z,27.10
2023-12-08T00:28:15.172Z,26.90
2023-12-08T00:31:22.977Z,26.80
2023-12-08T00:34:34.817Z,26.80
2023-12-08T00:37:48.870Z,26.70
2023-12-08T00:41:03.859Z,26.60
2023-12-08T00:44:14.524Z,26.50
2023-12-08T00:47:28.561Z,26.50
2023-12-08T00:50:40.527Z,26.50
2023-12-08T00:53:50.457Z,26.40
2023-12-08T00:57:03.216Z,26.30
2023-12-08T01:00:16.639Z,26.30
2023-12-08T01:03:30.133Z,26.30
2023-12-08T01:06:39.505Z,26.20
2023-12-08T01:09:50.245Z,26.20
2023-12-08T01:12:59.584Z,26.20
2023-12-08T01:16:10.933Z,26.20
2023-12-08T01:19:21.455Z,26.20
2023-12-08T01:22:31.723Z,26.10
2023-12-08T01:25:42.872Z,26.10
2023-12-08T01:28:56.776Z,26.00
2023-12-08T01:32:06.469Z,26.00
2023-12-08T01:35:14.617Z,26.00
2023-12-08T01:38:25.173Z,26.00
2023-12-08T01:41:35.355Z,26.00
2023-12-08T01:44:45.107Z,25.90
2023-12-08T01:47:56.611Z,25.90
2023-12-08T01:51:10.364Z,25.90
2023-12-08T01:54:19.648Z,25.90
2023-12-08T01:57:30.769Z,25.90
2023-12-08T02:00:40.931Z,25.90
2023-12-08T02:03:52.672Z,25.90
2023-12-08T02:10:18.667Z,26.00
2023-12-08T02:13:26.276Z,26.10
2023-12-08T02:16:41.009Z,26.20
2023-12-08T02:19:52.155Z,26.20
2023-12-08T02:23:06.851Z,26.30
2023-12-08T02:26:20.517Z,26.40
2023-12-08T02:29:28.284Z,26.50
2023-12-08T02:32:43.812Z,26.50
2023-12-08T02:35:57.820Z,26.60
2023-12-08T02:39:08.592Z,26.70
2023-12-08T02:42:18.429Z,26.70
2023-12-08T02:45:26.517Z,26.60
2023-12-08T02:48:37.173Z,26.50
2023-12-08T02:51:47.595Z,26.50
2023-12-08T02:54:58.756Z,26.50
2023-12-08T02:58:13.143Z,26.40
2023-12-08T03:01:25.053Z,26.40
2023-12-08T03:04:36.227Z,26.30
2023-12-08T03:07:43.722Z,26.20
2023-12-08T03:10:56.514Z,26.20
2023-12-08T03:14:04.766Z,26.20
2023-12-08T03:17:13.833Z,26.20
2023-12-08T03:20:25.481Z,26.20
2023-12-08T03:23:38.308Z,26.10
2023-12-08T03:26:48.090Z,26.10
2023-12-08T03:30:03.147Z,26.00
2023-12-08T03:33:11.219Z,26.00
2023-12-08T03:36:20.618Z,26.00
2023-12-08T03:39:29.893Z,26.00
2023-12-08T03:42:39.434Z,25.90
2023-12-08T03:45:50.939Z,25.90
2023-12-08T03:49:01.803Z,25.90
2023-12-08T03:52:15.145Z,25.90
2023-12-08T03:55:25.224Z,25.80
2023-12-08T03:58:35.487Z,25.80
2023-12-08T04:01:45.164Z,25.80
2023-12-08T04:04:53.150Z,25.70
2023-12-08T04:08:00.899Z,25.70
2023-12-08T04:11:11.219Z,25.70
2023-12-08T04:14:24.172Z,25.70
2023-12-08T04:17:38.674Z,25.60
2023-12-08T04:20:52.759Z,25.60
2023-12-08T04:24:08.756Z,25.60
2023-12-08T04:27:22.517Z,25.50
2023-12-08T04:33:56.048Z,25.50
2023-12-08T04:37:08.787Z,25.50
2023-12-08T04:40:23.250Z,25.50
2023-12-08T04:43:37.157Z,25.40
2023-12-08T04:46:49.074Z,25.40
2023-12-08T04:50:03.901Z,25.40
2023-12-08T04:53:18.516Z,25.30
2023-12-08T04:56:31.013Z,25.30
2023-12-08T04:59:42.189Z,25.30
2023-12-08T05:02:55.252Z,25.30
2023-12-08T05:06:06.646Z,25.30
2023-12-08T05:09:19.322Z,25.20
2023-12-08T05:12:34.304Z,25.20
2023-12-08T05:15:47.465Z,25.20
2023-12-08T05:18:58.740Z,25.10
2023-12-08T05:22:15.562Z,25.10
2023-12-08T05:25:29.147Z,25.10
2023-12-08T05:28:40.383Z,25.10
2023-12-08T05:31:55.529Z,25.10
2023-12-08T05:35:09.917Z,25.00
2023-12-08T05:38:25.369Z,25.10
2023-12-08T05:41:38.943Z,25.00
2023-12-08T05:44:52.039Z,25.00
2023-12-08T05:48:07.286Z,25.00
2023-12-08T05:51:21.950Z,25.00
2023-12-08T05:57:56.132Z,24.90
2023-12-08T06:01:13.552Z,24.90
2023-12-08T06:04:28.182Z,24.90
2023-12-08T06:07:42.793Z,24.90
2023-12-08T06:10:57.332Z,24.80
2023-12-08T06:14:12.637Z,24.90
2023-12-08T06:17:25.447Z,24.80
2023-12-08T06:20:39.313Z,24.80
2023-12-08T06:23:53.985Z,24.80
2023-12-08T06:27:08.223Z,24.80
2023-12-08T06:30:24.993Z,24.80
2023-12-08T06:33:38.754Z,24.80
2023-12-08T06:36:56.744Z,24.80
2023-12-08T06:40:12.723Z,24.80
2023-12-08T06:43:27.432Z,24.70
2023-12-08T06:46:43.267Z,24.70
2023-12-08T06:49:58.144Z,24.70
2023-12-08T06:53:13.154Z,24.70
2023-12-08T06:56:26.345Z,24.70
2023-12-08T06:59:36.773Z,24.60
2023-12-08T07:02:51.245Z,24.60
2023-12-08T07:06:05.692Z,24.60
2023-12-08T07:09:21.992Z,24.50
2023-12-08T07:12:33.938Z,24.60
2023-12-08T07:15:48.205Z,24.60
2023-12-08T07:19:02.622Z,24.50
2023-12-08T07:22:18.399Z,24.50
2023-12-08T07:25:35.070Z,24.50
2023-12-08T07:28:49.884Z,24.40
2023-12-08T07:32:04.230Z,24.40
2023-12-08T07:35:22.395Z,24.40
2023-12-08T07:38:38.561Z,24.40
2023-12-08T07:41:52.808Z,24.40
2023-12-08T07:45:07.452Z,24.40
2023-12-08T07:48:21.434Z,24.30
2023-12-08T07:51:36.906Z,24.30
2023-12-08T07:54:51.763Z,24.30
2023-12-08T07:58:04.749Z,24.30
2023-12-08T08:01:18.053Z,24.30
2023-12-08T08:04:28.895Z,24.30
2023-12-08T08:07:42.174Z,24.30
2023-12-08T08:10:52.770Z,24.20
2023-12-08T08:14:07.149Z,24.20
2023-12-08T08:17:21.748Z,24.20
2023-12-08T08:20:35.991Z,24.10
2023-12-08T08:23:50.077Z,24.10
2023-12-08T08:27:04.576Z,24.10
2023-12-08T08:30:23.037Z,24.10
2023-12-08T08:33:37.828Z,24.10
2023-12-08T08:36:54.374Z,24.10
2023-12-08T08:40:08.998Z,24.00
2023-12-08T08:43:23.539Z,24.00
2023-12-08T08:46:38.596Z,24.00
2023-12-08T08:49:54.551Z,24.00
2023-12-08T08:53:09.561Z,23.90
2023-12-08T08:56:24.675Z,23.90
2023-12-08T08:59:39.247Z,23.90
2023-12-08T09:02:55.317Z,23.90
2023-12-08T09:06:10.309Z,23.90
2023-12-08T09:09:28.022Z,23.90
2023-12-08T09:12:42.914Z,23.90
2023-12-08T09:15:58.879Z,23.90
2023-12-08T09:19:14.967Z,23.80
2023-12-08T09:22:29.698Z,23.80
2023-12-08T09:25:44.634Z,23.80
2023-12-08T09:28:59.246Z,23.80
2023-12-08T09:32:15.341Z,23.80
2023-12-08T09:35:29.790Z,23.80
2023-12-08T09:38:44.901Z,23.80
2023-12-08T09:41:59.388Z,23.80
2023-12-08T09:45:17.600Z,23.70
2023-12-08T09:48:33.502Z,23.70
2023-12-08T09:51:48.774Z,23.70
2023-12-08T09:55:03.168Z,23.70
2023-12-08T09:58:16.834Z,23.70
2023-12-08T10:01:30.116Z,23.60
2023-12-08T10:04:40.976Z,23.70
2023-12-08T10:07:56.503Z,23.70
2023-12-08T10:11:12.033Z,23.80
2023-12-08T10:14:27.644Z,23.90
2023-12-08T10:17:46.676Z,24.00
2023-12-08T10:21:01.658Z,24.10
2023-12-08T10:24:18.529Z,24.20
2023-12-08T10:27:34.674Z,24.30
2023-12-08T10:30:50.434Z,24.30
2023-12-08T10:34:04.090Z,24.40
2023-12-08T10:37:19.779Z,24.40
2023-12-08T10:40:35.397Z,24.50
2023-12-08T10:43:49.787Z,24.50
2023-12-08T10:47:04.157Z,24.60
2023-12-08T10:50:21.917Z,24.60
2023-12-08T10:53:34.426Z,24.50
2023-12-08T10:56:50.475Z,24.50
2023-12-08T11:00:09.229Z,24.40
2023-12-08T11:03:23.518Z,24.30
2023-12-08T11:06:41.991Z,24.30
2023-12-08T11:09:56.702Z,24.30
2023-12-08T11:13:13.507Z,24.20
2023-12-08T11:16:34.072Z,24.20
2023-12-08T11:19:50.501Z,24.10
2023-12-08T11:23:05.642Z,24.10
2023-12-08T11:26:22.635Z,24.20
2023-12-08T11:29:40.333Z,24.30
2023-12-08T11:32:54.880Z,24.40
2023-12-08T11:36:17.127Z,24.50
2023-12-08T11:40:03.641Z,24.50
2023-12-08T11:43:18.903Z,24.60
2023-12-08T11:46:33.480Z,24.70
2023-12-08T11:49:52.259Z,24.70
2023-12-08T11:53:05.399Z,24.80
2023-12-08T11:56:28.071Z,24.90
2023-12-08T11:59:42.358Z,24.90
2023-12-08T12:02:56.049Z,25.00
2023-12-08T12:06:09.799Z,25.10
2023-12-08T12:09:24.391Z,25.20
2023-12-08T12:12:39.640Z,25.20
2023-12-08T12:15:52.218Z,25.30
2023-12-08T12:19:07.692Z,25.40
2023-12-08T12:22:22.453Z,25.50
2023-12-08T12:25:36.888Z,25.50
2023-12-08T12:28:51.932Z,25.60
2023-12-08T12:32:06.900Z,25.60
2023-12-08T12:35:24.440Z,25.70
2023-12-08T12:38:39.199Z,25.60
2023-12-08T12:41:55.316Z,25.60
2023-12-08T12:45:13.340Z,25.50
2023-12-08T12:48:29.521Z,25.50
2023-12-08T12:51:47.163Z,25.40
2023-12-08T12:55:00.270Z,25.40
2023-12-08T12:58:12.298Z,25.30
2023-12-08T13:01:25.559Z,25.30
2023-12-08T13:04:40.666Z,25.30
2023-12-08T13:08:04.777Z,25.30
2023-12-08T13:11:19.379Z,25.20
2023-12-08T13:14:32.365Z,25.20
2023-12-08T13:17:47.432Z,25.20
2023-12-08T13:21:01.873Z,25.20
2023-12-08T13:24:17.729Z,25.20
2023-12-08T13:27:31.896Z,25.20
2023-12-08T13:30:46.769Z,25.20
2023-12-08T13:34:01.210Z,25.20
2023-12-08T13:37:16.202Z,25.20
2023-12-08T13:40:31.938Z,25.20
2023-12-08T13:43:46.399Z,25.30
2023-12-08T13:47:00.915Z,25.30
2023-12-08T13:50:16.236Z,25.30
2023-12-08T13:53:30.648Z,25.30
2023-12-08T13:56:44.976Z,25.30
2023-12-08T13:59:59.597Z,25.30
2023-12-08T14:03:14.152Z,25.30
2023-12-08T14:06:29.776Z,25.30
2023-12-08T14:09:43.433Z,25.30
2023-12-08T14:12:58.775Z,25.30
2023-12-08T14:16:15.141Z,25.30
2023-12-08T14:19:30.362Z,25.30
2023-12-08T14:22:44.667Z,25.30
2023-12-08T14:25:56.622Z,25.30
2023-12-08T14:29:11.846Z,25.30
2023-12-08T14:32:26.593Z,25.30
2023-12-08T14:35:43.492Z,25.20
2023-12-08T14:38:58.425Z,25.30
2023-12-08T14:42:13.666Z,25.20
2023-12-08T14:45:31.016Z,25.20
2023-12-08T14:48:46.210Z,25.20
2023-12-08T14:51:59.001Z,25.20
2023-12-08T14:55:17.252Z,25.20
2023-12-08T14:58:31.995Z,25.20
2023-12-08T15:01:45.768Z,25.20
2023-12-08T15:05:00.554Z,25.10
2023-12-08T15:08:15.316Z,25.10
2023-12-08T15:11:28.863Z,25.10
2023-12-08T15:14:42.523Z,25.10
2023-12-08T15:17:56.422Z,25.10
2023-12-08T15:21:13.554Z,25.10
2023-12-08T15:24:26.828Z,25.10
2023-12-08T15:27:43.355Z,25.10
2023-12-08T15:30:58.025Z,25.10
2023-12-08T15:34:13.766Z,25.10
2023-12-08T15:37:27.874Z,25.00
2023-12-08T15:40:42.242Z,25.00
2023-12-08T15:43:54.854Z,25.00
2023-12-08T15:47:10.051Z,25.00
2023-12-08T15:50:26.073Z,25.00
2023-12-08T15:53:40.335Z,25.00
2023-12-08T15:56:53.143Z,25.00
2023-12-08T16:00:12.773Z,25.00
2023-12-08T16:03:28.260Z,25.00
2023-12-08T16:06:43.206Z,24.90
2023-12-08T16:09:59.714Z,24.90
2023-12-08T16:13:10.782Z,24.90
2023-12-08T16:16:26.226Z,25.00
2023-12-08T16:19:41.977Z,24.90
2023-12-08T16:22:54.643Z,24.90
2023-12-08T16:26:12.845Z,24.90
2023-12-08T16:29:25.560Z,24.90
2023-12-08T16:32:36.304Z,24.90
2023-12-08T16:35:49.094Z,24.90
2023-12-08T16:39:03.278Z,24.90
2023-12-08T16:42:16.504Z,24.90
2023-12-08T16:45:34.352Z,24.90
2023-12-08T16:48:48.310Z,24.90
2023-12-08T16:52:02.469Z,24.90
2023-12-08T16:55:18.912Z,24.90
2023-12-08T16:58:34.489Z,24.90
2023-12-08T17:01:51.635Z,24.90
2023-12-08T17:05:05.217Z,24.90
2023-12-08T17:08:20.313Z,24.90
2023-12-08T17:11:33.641Z,24.80
2023-12-08T17:14:48.155Z,24.80
2023-12-08T17:18:03.412Z,24.80
2023-12-08T17:21:18.533Z,24.80
2023-12-08T17:24:38.329Z,24.80
2023-12-08T17:27:56.566Z,24.80
2023-12-08T17:31:11.201Z,24.80
2023-12-08T17:34:23.530Z,24.80
2023-12-08T17:37:39.635Z,24.90
2023-12-08T17:40:54.663Z,24.90
2023-12-08T17:44:08.910Z,24.90
2023-12-08T17:47:22.783Z,24.90
2023-12-08T17:50:31.988Z,25.10
2023-12-08T17:53:47.032Z,25.20
2023-12-08T17:57:01.434Z,25.30
2023-12-08T18:00:19.184Z,25.50
2023-12-08T18:03:32.162Z,25.60
2023-12-08T18:06:41.685Z,25.70
2023-12-08T18:09:57.964Z,25.70
2023-12-08T18:13:13.271Z,25.80
2023-12-08T18:16:33.237Z,25.90
2023-12-08T18:19:48.828Z,25.90
2023-12-08T18:22:59.924Z,26.00
2023-12-08T18:26:14.171Z,26.10
2023-12-08T18:29:26.808Z,26.20
2023-12-08T18:32:40.485Z,26.20
2023-12-08T18:35:56.181Z,26.10
2023-12-08T18:39:10.827Z,26.00
2023-12-08T18:42:25.687Z,25.90
2023-12-08T18:45:38.347Z,25.90
2023-12-08T18:48:54.314Z,25.80
2023-12-08T18:52:09.032Z,25.70
2023-12-08T18:55:25.433Z,25.70
2023-12-08T18:58:39.789Z,25.70
2023-12-08T19:01:54.182Z,25.70
2023-12-08T19:05:09.046Z,25.60
2023-12-08T19:08:21.069Z,25.50
2023-12-08T19:11:35.405Z,25.50
2023-12-08T19:14:50.448Z,25.40
2023-12-08T19:18:04.130Z,25.40
2023-12-08T19:21:18.011Z,25.40
2023-12-08T19:24:32.871Z,25.30
2023-12-08T19:27:48.369Z,25.30
2023-12-08T19:31:02.950Z,25.30
2023-12-08T19:34:19.124Z,25.30
2023-12-08T19:37:32.106Z,25.30
2023-12-08T19:40:44.755Z,25.20
2023-12-08T19:43:58.160Z,25.20
2023-12-08T19:47:13.732Z,25.20
2023-12-08T19:50:28.435Z,25.20
2023-12-08T19:53:42.865Z,25.10
2023-12-08T19:56:57.436Z,25.10
2023-12-08T20:00:15.113Z,25.10
2023-12-08T20:03:28.766Z,25.10
2023-12-08T20:06:41.756Z,25.10
2023-12-08T20:09:57.980Z,25.10
2023-12-08T20:13:15.287Z,25.00
2023-12-08T20:16:28.150Z,25.00
2023-12-08T20:19:46.108Z,25.00
2023-12-08T20:23:01.412Z,25.00
2023-12-08T20:26:19.101Z,25.10
2023-12-08T20:29:33.161Z,25.20
2023-12-08T20:32:48.601Z,25.30
2023-12-08T20:36:02.638Z,25.40
2023-12-08T20:39:16.975Z,25.50
2023-12-08T20:45:49.284Z,25.80
2023-12-08T20:49:03.934Z,25.90
2023-12-08T20:52:18.956Z,26.00
2023-12-08T20:55:33.547Z,26.10
2023-12-08T20:58:54.892Z,26.20
2023-12-08T21:02:10.237Z,26.30
2023-12-08T21:05:26.099Z,26.40
2023-12-08T21:08:40.983Z,26.50
2023-12-08T21:11:56.799Z,26.50
2023-12-08T21:15:14.254Z,26.50
2023-12-08T21:18:29.208Z,26.50
2023-12-08T21:21:44.374Z,26.40
2023-12-08T21:24:59.076Z,26.30
2023-12-08T21:28:13.018Z,26.30
2023-12-08T21:31:28.889Z,26.20
2023-12-08T21:34:40.322Z,26.20
2023-12-08T21:37:56.398Z,26.10
2023-12-08T21:41:12.981Z,26.10
2023-12-08T21:44:28.034Z,26.10
2023-12-08T21:47:43.289Z,26.10
2023-12-08T21:50:57.085Z,26.00
2023-12-08T21:54:09.854Z,26.00
2023-12-08T21:57:22.839Z,26.00
2023-12-08T22:00:40.324Z,26.00
2023-12-08T22:03:58.230Z,26.00
2023-12-08T22:07:11.877Z,25.90
2023-12-08T22:10:26.076Z,26.00
2023-12-08T22:13:42.653Z,25.90
2023-12-08T22:16:58.644Z,26.00
2023-12-08T22:20:15.165Z,26.00
2023-12-08T22:23:28.744Z,25.90
2023-12-08T22:26:43.014Z,25.90
2023-12-08T22:29:58.610Z,25.90
2023-12-08T22:33:12.074Z,25.90
2023-12-08T22:36:23.567Z,25.90
2023-12-08T22:39:34.514Z,25.90
2023-12-08T22:42:50.230Z,25.90
2023-12-08T22:46:04.769Z,25.90
2023-12-08T22:49:20.872Z,26.10
2023-12-08T22:52:37.543Z,26.20
2023-12-08T22:55:53.245Z,26.10
2023-12-08T22:59:07.784Z,26.20
2023-12-08T23:02:22.705Z,26.10
2023-12-08T23:05:38.356Z,26.10
2023-12-08T23:08:52.993Z,26.10
2023-12-08T23:12:07.868Z,26.00
2023-12-08T23:15:25.567Z,26.00
2023-12-08T23:18:44.300Z,26.00
2023-12-08T23:21:59.155Z,25.90
2023-12-08T23:25:16.900Z,25.90
2023-12-08T23:28:31.326Z,25.90
2023-12-08T23:31:46.900Z,26.00
2023-12-08T23:35:00.319Z,26.00
2023-12-08T23:38:12.508Z,26.10
2023-12-08T23:41:26.471Z,26.20
2023-12-08T23:44:39.247Z,26.30
2023-12-08T23:47:51.850Z,26.40
2023-12-08T23:51:07.712Z,26.50
2023-12-08T23:54:24.592Z,26.60
2023-12-08T23:57:39.559Z,26.50
